Meteo Giornale » Osservazioni meteo Francia » Istres
ore: 20:00 - Osservazioni Meteo Istres
Lat. 43° 31' N Lon. 4° 56' E Alt. 23 metri s.l.m.
25 °C
Sereno
Temp. 24 Ore
21 °C
33 °C
Ovest
11.1 Km/h
Dew point 16 °C
Umidità 57 %
Visibilità 10 Km
Il sole sorge alle ore 07:04
Il sole tramonta alle ore 20:16
| Data e Ora | Cielo e Fenomeni | T °C | DP °C | Um. % | Pres. hPa | Vis. km | Vento km/h | |
|---|---|---|---|---|---|---|---|---|
| Oggi h: 20:00 | Sereno | 25 | 16 | 57 | 1017 | 10 | O 11.1 | |
| Oggi h: 19:30 | Sereno | 27 | 16 | 50 | 1017 | 10 | O/SO 20.3 | |
| Oggi h: 19:00 | Sereno | 28 | 14 | 42 | 1017 | 10 | O 24 | |
| Oggi h: 18:30 | Sereno | 29 | 15 | 42 | 1017 | 10 | O/SO 24 | |
| Oggi h: 18:00 | Sereno | 30 | 17 | 45 | 1017 | 10 | O 27.8 | |
| Oggi h: 17:30 | Sereno | 33 | 10 | 24 | 1016 | 10 | NO 13 | |
| Oggi h: 17:00 | Sereno | 33 | 11 | 26 | 1016 | 10 | N/NO 13 | |
| Oggi h: 16:30 | Sereno | 33 | 12 | 27 | 1016 | 10 | N 16.7 | |
| Oggi h: 16:00 | Sereno | 32 | 12 | 29 | 1017 | 10 | N 20.3 | |
| Oggi h: 15:30 | Sereno | 32 | 10 | 25 | 1017 | 10 | N/NO 22.2 | |
| Oggi h: 15:00 | Sereno | 31 | 12 | 31 | 1017 | 10 | N 20.3 | |
| Oggi h: 14:30 | Sereno | 31 | 12 | 31 | 1018 | 10 | N 24 | |
| Oggi h: 14:00 | Sereno | 30 | 12 | 33 | 1018 | 10 | NO 24 | |
| Oggi h: 13:30 | Sereno | 30 | 11 | 30 | 1018 | 10 | N/NO 20.3 | |
| Oggi h: 13:00 | Sereno | 29 | 12 | 35 | 1018 | 10 | N/NO 20.3 | |
| Oggi h: 12:30 | Sereno | 29 | 13 | 37 | 1018 | 10 | N/NO 18.5 | |
| Oggi h: 12:00 | Sereno | 28 | 12 | 37 | 1019 | 10 | N 18.5 | |
| Oggi h: 11:30 | Sereno | 27 | 12 | 39 | 1019 | 10 | N 20.3 | |
| Oggi h: 11:00 | Sereno | 26 | 13 | 44 | 1018 | 10 | N 20.3 | |
| Oggi h: 10:30 | Sereno | 25 | 12 | 44 | 1019 | 10 | N 20.3 | |
| Oggi h: 10:00 | Sereno | 25 | 12 | 44 | 1018 | 10 | N 20.3 | |
| Oggi h: 09:30 | Sereno | 24 | 12 | 47 | 1018 | 10 | N 18.5 | |
| Oggi h: 09:00 | Sereno | 23 | 12 | 49 | 1018 | 10 | N 14.8 | |
| Oggi h: 08:30 | Sereno | 23 | 12 | 49 | 1018 | 10 | N 13 | |
| Oggi h: 08:00 | Sereno | 22 | 12 | 53 | 1018 | 10 | N 18.5 | |
| Oggi h: 07:30 | Sereno | 21 | 12 | 56 | 1018 | 10 | N 13 | |
| Oggi h: 07:00 | Sereno | 21 | 11 | 52 | 1018 | 10 | N 14.8 | |
| Oggi h: 06:30 | Sereno | 21 | 12 | 56 | 1018 | 10 | N 11.1 | |
| Oggi h: 06:00 | Sereno | 22 | 12 | 53 | 1018 | 10 | N 13 | |
| Oggi h: 05:30 | Sereno | 22 | 12 | 53 | 1018 | 10 | N 16.7 | |
| Oggi h: 05:00 | Sereno | 21 | 12 | 56 | 1018 | 10 | N/NO 13 | |
| Oggi h: 04:30 | Sereno | 21 | 12 | 56 | 1018 | 10 | N/NO 13 | |
| Oggi h: 04:00 | Sereno | 22 | 12 | 53 | 1018 | 10 | N/NO 14.8 | |
| Oggi h: 03:30 | Sereno | 21 | 13 | 60 | 1018 | 10 | N/NO 13 | |
| Oggi h: 03:00 | Sereno | 21 | 13 | 60 | 1018 | 10 | N/NO 9.3 | |
| Oggi h: 02:30 | Sereno | 21 | 13 | 60 | 1018 | 10 | NO 7.4 | |
| Oggi h: 02:00 | Sereno | 22 | 12 | 53 | 1018 | 10 | N/NO 13 | |
| Oggi h: 01:30 | Sereno | 22 | 13 | 56 | 1018 | 10 | N/NO 13 | |
| Oggi h: 01:00 | Sereno | 22 | 13 | 56 | 1018 | 10 | NO 13 | |
| Oggi h: 00:30 | Sereno | 22 | 14 | 60 | 1018 | 10 | NO 13 | |
| Oggi h: 00:00 | Sereno | 23 | 14 | 56 | 1018 | 10 | N/NO 9.3 | |
| Ieri h: 23:30 | Sereno | 24 | 15 | 57 | 1018 | 10 | N 5.5 | |
| Ieri h: 23:00 | Sereno | 25 | 15 | 53 | 1017 | 10 | N 7.4 | |
| Ieri h: 22:30 | Sereno | 25 | 17 | 61 | 1017 | 10 | N/NO 9.3 | |
| Ieri h: 22:00 | Sereno | 25 | 18 | 65 | 1017 | 10 | NO 9.3 | |
| Ieri h: 21:30 | Sereno | 25 | 18 | 65 | 1017 | 10 | NO 9.3 | |
| Ieri h: 21:00 | Sereno | 26 | 18 | 61 | 1017 | 10 | NO 7.4 | |



